createdAt,value
2019-05-18T00:00:08.444Z,13.40
2019-05-18T00:02:37.189Z,13.83
2019-05-18T00:05:09.246Z,13.63
2019-05-18T00:07:37.919Z,12.37
2019-05-18T00:10:06.982Z,11.20
2019-05-18T00:12:35.797Z,11.40
2019-05-18T00:15:06.808Z,13.20
2019-05-18T00:17:35.574Z,12.43
2019-05-18T00:20:06.154Z,12.97
2019-05-18T00:22:34.782Z,12.50
2019-05-18T00:25:04.371Z,12.67
2019-05-18T00:27:32.988Z,12.47
2019-05-18T00:30:01.668Z,13.13
2019-05-18T00:32:30.288Z,13.30
2019-05-18T00:34:59.042Z,12.97
2019-05-18T00:37:27.727Z,12.70
2019-05-18T00:39:56.396Z,12.40
2019-05-18T00:42:25.016Z,12.70
2019-05-18T00:44:53.688Z,11.67
2019-05-18T00:47:22.319Z,13.00
2019-05-18T00:49:50.992Z,10.70
2019-05-18T00:52:19.684Z,11.60
2019-05-18T00:54:48.366Z,10.73
2019-05-18T00:57:17.056Z,12.37
2019-05-18T00:59:45.867Z,11.33
2019-05-18T01:02:14.618Z,11.67
2019-05-18T01:04:43.249Z,12.17
2019-05-18T01:07:11.928Z,15.97
2019-05-18T01:09:40.600Z,10.70
2019-05-18T01:12:09.298Z,12.67
2019-05-18T01:14:37.975Z,13.10
2019-05-18T01:17:06.659Z,11.07
2019-05-18T01:19:35.389Z,13.60
2019-05-18T01:22:04.151Z,12.63
2019-05-18T01:24:32.892Z,12.87
2019-05-18T01:27:01.523Z,12.80
2019-05-18T01:29:30.208Z,11.47
2019-05-18T01:31:58.895Z,11.40
2019-05-18T01:34:27.505Z,11.37
2019-05-18T01:36:56.176Z,11.40
2019-05-18T01:39:24.795Z,11.60
2019-05-18T01:41:53.528Z,11.43
2019-05-18T01:44:22.150Z,12.97
2019-05-18T01:46:50.781Z,11.80
2019-05-18T01:49:19.470Z,11.97
2019-05-18T01:51:48.088Z,10.70
2019-05-18T01:54:16.825Z,11.03
2019-05-18T01:56:45.527Z,12.63
2019-05-18T01:59:14.213Z,13.10
2019-05-18T02:01:42.967Z,12.83
2019-05-18T02:04:11.699Z,13.23
2019-05-18T02:06:40.309Z,13.10
2019-05-18T02:09:09.654Z,12.67
2019-05-18T02:11:38.419Z,13.40
2019-05-18T02:14:07.235Z,12.97
2019-05-18T02:16:35.932Z,12.87
2019-05-18T02:19:04.742Z,12.50
2019-05-18T02:21:33.384Z,12.70
2019-05-18T02:24:02.079Z,12.77
2019-05-18T02:26:30.681Z,12.27
2019-05-18T02:28:59.434Z,12.47
2019-05-18T02:31:28.110Z,12.80
2019-05-18T02:33:56.726Z,12.30
2019-05-18T02:36:25.483Z,11.67
2019-05-18T02:38:54.171Z,12.03
2019-05-18T02:41:22.924Z,11.67
2019-05-18T02:43:51.597Z,11.20
2019-05-18T02:46:20.347Z,11.80
2019-05-18T02:48:50.648Z,12.20
2019-05-18T02:51:19.500Z,12.20
2019-05-18T02:53:48.164Z,12.80
2019-05-18T02:56:16.862Z,12.57
2019-05-18T02:58:45.600Z,12.63
2019-05-18T03:01:14.354Z,12.80
2019-05-18T03:03:42.978Z,13.03
2019-05-18T03:06:11.787Z,12.73
2019-05-18T03:08:40.735Z,12.50
2019-05-18T03:11:09.516Z,12.50
2019-05-18T03:13:38.263Z,12.97
2019-05-18T03:16:07.033Z,13.83
2019-05-18T03:18:35.713Z,13.80
2019-05-18T03:21:04.473Z,13.03
2019-05-18T03:23:33.292Z,15.00
2019-05-18T03:26:01.925Z,15.07
2019-05-18T03:28:30.530Z,14.37
2019-05-18T03:30:59.208Z,12.50
2019-05-18T03:33:30.038Z,13.87
2019-05-18T03:35:58.358Z,14.80
2019-05-18T03:38:26.973Z,14.87
2019-05-18T03:40:55.728Z,13.47
2019-05-18T03:43:24.483Z,13.07
2019-05-18T03:45:54.003Z,14.93
2019-05-18T03:48:22.613Z,14.77
2019-05-18T03:50:51.352Z,14.27
2019-05-18T03:53:19.980Z,14.77
2019-05-18T03:55:48.722Z,13.67
2019-05-18T03:58:17.341Z,13.40
2019-05-18T04:00:46.090Z,13.13
2019-05-18T04:03:14.777Z,12.50
2019-05-18T04:05:43.457Z,13.00
2019-05-18T04:08:12.144Z,13.10
2019-05-18T04:10:40.848Z,12.73
2019-05-18T04:13:09.594Z,11.90
2019-05-18T04:15:38.237Z,15.37
2019-05-18T04:18:06.913Z,13.60
2019-05-18T04:20:35.526Z,12.87
2019-05-18T04:23:04.353Z,13.57
2019-05-18T04:25:32.996Z,13.33
2019-05-18T04:28:01.729Z,14.90
2019-05-18T04:30:30.428Z,14.50
2019-05-18T04:32:59.092Z,13.83
2019-05-18T04:35:27.802Z,16.43
2019-05-18T04:37:56.413Z,16.10
2019-05-18T04:40:25.163Z,15.47
2019-05-18T04:42:53.852Z,15.83
2019-05-18T04:45:22.612Z,17.10
2019-05-18T04:47:51.494Z,16.23
2019-05-18T04:50:20.260Z,16.77
2019-05-18T04:52:48.933Z,16.53
2019-05-18T04:55:17.700Z,16.13
2019-05-18T04:57:46.509Z,16.17
2019-05-18T05:00:15.313Z,15.53
2019-05-18T05:02:43.936Z,15.63
2019-05-18T05:05:12.951Z,15.90
2019-05-18T05:07:41.561Z,17.27
2019-05-18T05:10:10.967Z,16.40
2019-05-18T05:12:39.632Z,16.93
2019-05-18T05:15:08.796Z,20.47
2019-05-18T05:17:37.468Z,22.57
2019-05-18T05:20:18.643Z,21.90
2019-05-18T05:22:37.324Z,22.07
2019-05-18T05:25:06.440Z,26.67
2019-05-18T05:27:35.059Z,24.03
2019-05-18T05:30:07.206Z,23.10
2019-05-18T05:32:35.899Z,22.23
2019-05-18T05:35:06.221Z,20.97
2019-05-18T05:37:34.918Z,20.10
2019-05-18T05:40:05.222Z,20.60
2019-05-18T05:42:34.039Z,21.97
2019-05-18T05:45:02.725Z,21.87
2019-05-18T05:47:31.419Z,21.67
2019-05-18T05:50:00.114Z,21.27
2019-05-18T05:52:28.793Z,20.97
2019-05-18T05:54:57.561Z,21.90
2019-05-18T05:57:26.196Z,22.13
2019-05-18T05:59:54.951Z,22.73
2019-05-18T06:02:23.610Z,22.37
2019-05-18T06:04:52.394Z,20.30
2019-05-18T06:07:21.205Z,22.47
2019-05-18T06:09:49.826Z,22.23
2019-05-18T06:12:18.643Z,21.10
2019-05-18T06:14:47.335Z,21.23
2019-05-18T06:17:15.997Z,20.27
2019-05-18T06:19:44.619Z,20.40
2019-05-18T06:22:13.314Z,19.83
2019-05-18T06:24:41.935Z,20.47
2019-05-18T06:27:10.621Z,19.60
2019-05-18T06:29:39.307Z,19.43
2019-05-18T06:32:07.969Z,19.93
2019-05-18T06:34:36.777Z,20.03
2019-05-18T06:37:05.405Z,18.67
2019-05-18T06:39:34.079Z,18.17
2019-05-18T06:42:02.841Z,18.37
2019-05-18T06:44:31.525Z,18.30
2019-05-18T06:47:00.149Z,18.10
2019-05-18T06:49:28.882Z,17.10
2019-05-18T06:51:57.600Z,16.40
2019-05-18T06:54:26.341Z,18.27
2019-05-18T06:56:56.819Z,16.90
2019-05-18T06:59:28.234Z,16.80
2019-05-18T07:01:56.848Z,17.30
2019-05-18T07:04:25.512Z,17.50
2019-05-18T07:06:54.145Z,17.23
2019-05-18T07:09:22.999Z,17.50
2019-05-18T07:11:51.685Z,17.60
2019-05-18T07:14:25.659Z,17.57
2019-05-18T07:16:52.873Z,17.13
2019-05-18T07:19:21.724Z,17.80
2019-05-18T07:21:50.552Z,17.93
2019-05-18T07:24:19.242Z,18.50
2019-05-18T07:26:47.997Z,17.87
2019-05-18T07:29:16.629Z,17.47
2019-05-18T07:31:45.462Z,17.23
2019-05-18T07:34:14.393Z,16.90
2019-05-18T07:36:43.155Z,16.80
2019-05-18T07:39:11.901Z,15.70
2019-05-18T07:41:46.658Z,13.67
2019-05-18T07:44:11.005Z,15.00
2019-05-18T07:46:39.669Z,14.93
2019-05-18T07:49:08.348Z,15.83
2019-05-18T07:51:37.531Z,14.10
2019-05-18T07:54:06.586Z,14.10
2019-05-18T07:56:35.361Z,14.53
2019-05-18T07:59:04.114Z,12.23
2019-05-18T08:01:33.074Z,12.87
2019-05-18T08:04:01.973Z,12.13
2019-05-18T08:06:30.832Z,10.63
2019-05-18T08:09:00.565Z,10.90
2019-05-18T08:11:29.246Z,11.30
2019-05-18T08:13:57.925Z,10.57
2019-05-18T08:16:26.835Z,10.80
2019-05-18T08:18:58.133Z,10.23
2019-05-18T08:21:34.710Z,10.63
2019-05-18T08:24:03.518Z,9.93
2019-05-18T08:26:32.359Z,9.63
2019-05-18T08:29:01.185Z,9.40
2019-05-18T08:31:29.798Z,10.20
2019-05-18T08:33:58.476Z,10.13
2019-05-18T08:36:27.101Z,9.00
2019-05-18T08:38:55.768Z,8.90
2019-05-18T08:41:24.629Z,8.87
2019-05-18T08:43:53.295Z,10.10
2019-05-18T08:46:22.100Z,10.20
2019-05-18T08:48:50.896Z,9.80
2019-05-18T08:51:19.528Z,9.93
2019-05-18T08:53:48.184Z,8.17
2019-05-18T08:56:16.822Z,10.90
2019-05-18T08:58:45.483Z,8.80
2019-05-18T09:01:14.216Z,9.10
2019-05-18T09:03:42.962Z,8.97
2019-05-18T09:06:11.658Z,9.20
2019-05-18T09:08:40.278Z,8.57
2019-05-18T09:11:09.451Z,9.60
2019-05-18T09:13:38.062Z,9.57
2019-05-18T09:16:06.801Z,8.30
2019-05-18T09:18:35.425Z,8.30
2019-05-18T09:21:07.994Z,8.50
2019-05-18T09:23:36.660Z,8.40
2019-05-18T09:26:05.418Z,8.93
2019-05-18T09:28:34.118Z,8.10
2019-05-18T09:31:02.787Z,8.90
2019-05-18T09:33:31.449Z,9.00
2019-05-18T09:36:00.077Z,9.13
2019-05-18T09:38:28.745Z,9.10
2019-05-18T09:40:57.481Z,9.40
2019-05-18T09:43:26.224Z,9.03
2019-05-18T09:45:54.930Z,8.77
2019-05-18T09:48:23.537Z,8.60
2019-05-18T09:50:52.291Z,9.60
2019-05-18T09:53:21.011Z,8.47
2019-05-18T09:55:49.774Z,7.70
2019-05-18T09:58:18.510Z,7.97
2019-05-18T10:00:47.174Z,8.40
2019-05-18T10:03:19.227Z,8.90
2019-05-18T10:05:47.959Z,8.27
2019-05-18T10:08:16.637Z,8.17
2019-05-18T10:10:45.707Z,7.33
2019-05-18T10:13:14.396Z,8.63
2019-05-18T10:15:43.009Z,8.57
2019-05-18T10:18:11.639Z,8.90
2019-05-18T10:20:40.306Z,8.30
2019-05-18T10:23:12.906Z,8.53
2019-05-18T10:25:39.316Z,6.17
2019-05-18T10:28:08.000Z,6.03
2019-05-18T10:30:36.617Z,5.50
2019-05-18T10:33:05.370Z,5.33
2019-05-18T10:35:34.136Z,4.63
2019-05-18T10:38:02.759Z,4.90
2019-05-18T10:40:31.428Z,4.60
2019-05-18T10:43:00.153Z,4.77
2019-05-18T10:45:29.043Z,4.00
2019-05-18T10:47:59.737Z,5.17
2019-05-18T10:50:28.482Z,4.90
2019-05-18T10:52:57.306Z,4.90
2019-05-18T10:55:26.022Z,4.70
2019-05-18T10:57:54.670Z,4.93
2019-05-18T11:00:24.130Z,4.27
2019-05-18T11:02:52.806Z,6.00
2019-05-18T11:05:21.610Z,5.67
2019-05-18T11:07:50.292Z,5.27
2019-05-18T11:10:21.425Z,7.17
2019-05-18T11:12:50.231Z,5.07
2019-05-18T11:15:21.400Z,4.43
2019-05-18T11:17:50.138Z,4.97
2019-05-18T11:20:19.354Z,5.33
2019-05-18T11:22:48.190Z,5.53
2019-05-18T11:25:17.046Z,5.37
2019-05-18T11:27:45.737Z,4.90
2019-05-18T11:30:16.293Z,4.70
2019-05-18T11:32:44.983Z,5.20
2019-05-18T11:35:14.036Z,5.17
2019-05-18T11:37:42.723Z,5.40
2019-05-18T11:40:11.742Z,4.83
2019-05-18T11:42:40.491Z,5.23
2019-05-18T11:45:11.540Z,5.13
2019-05-18T11:47:40.365Z,5.60
2019-05-18T11:50:10.080Z,5.20
2019-05-18T11:52:38.852Z,5.00
2019-05-18T11:58:35.684Z,5.30
2019-05-18T12:01:04.473Z,4.60
2019-05-18T12:03:33.405Z,4.80
2019-05-18T12:06:02.195Z,4.73
2019-05-18T12:08:30.852Z,5.40
2019-05-18T12:10:59.906Z,5.20
2019-05-18T12:13:28.547Z,5.57
2019-05-18T12:15:57.334Z,4.80
2019-05-18T12:18:26.001Z,4.63
2019-05-18T12:20:54.717Z,5.50
2019-05-18T12:23:23.366Z,4.90
2019-05-18T12:25:52.153Z,4.20
2019-05-18T12:28:20.807Z,3.80
2019-05-18T12:30:49.493Z,4.30
2019-05-18T12:33:18.263Z,3.93
2019-05-18T12:35:46.860Z,4.00
2019-05-18T12:38:15.522Z,4.03
2019-05-18T12:40:44.250Z,3.40
2019-05-18T12:43:12.941Z,3.40
2019-05-18T12:45:41.681Z,3.23
2019-05-18T12:48:10.362Z,3.10
2019-05-18T12:50:39.156Z,3.50
2019-05-18T12:53:07.924Z,3.20
2019-05-18T12:55:36.568Z,3.37
2019-05-18T12:58:05.383Z,3.10
2019-05-18T13:00:34.259Z,3.17
2019-05-18T13:03:03.011Z,3.00
2019-05-18T13:05:31.788Z,3.43
2019-05-18T13:08:00.467Z,3.10
2019-05-18T13:10:29.147Z,2.87
2019-05-18T13:12:57.885Z,3.33
2019-05-18T13:15:26.626Z,3.00
2019-05-18T13:17:55.293Z,3.17
2019-05-18T13:20:25.089Z,3.50
2019-05-18T13:22:53.879Z,3.20
2019-05-18T13:25:22.625Z,3.10
2019-05-18T13:27:51.287Z,2.97
2019-05-18T13:30:20.259Z,3.50
2019-05-18T13:32:48.998Z,2.90
2019-05-18T13:35:19.227Z,3.07
2019-05-18T13:37:48.012Z,3.03
2019-05-18T13:40:17.398Z,3.20
2019-05-18T13:42:46.139Z,3.03
2019-05-18T13:45:15.453Z,3.07
2019-05-18T13:47:44.131Z,3.10
2019-05-18T13:50:14.761Z,3.10
2019-05-18T13:52:43.425Z,3.00
2019-05-18T13:55:12.279Z,3.00
2019-05-18T13:57:41.057Z,3.40
2019-05-18T14:00:10.289Z,2.97
2019-05-18T14:02:39.123Z,3.00
2019-05-18T14:05:07.995Z,3.10
2019-05-18T14:07:36.798Z,3.10
2019-05-18T14:10:06.950Z,3.30
2019-05-18T14:12:35.658Z,3.20
2019-05-18T14:15:06.474Z,3.33
2019-05-18T14:17:35.283Z,3.00
2019-05-18T14:20:05.820Z,3.13
2019-05-18T14:22:34.626Z,3.13
2019-05-18T14:25:18.304Z,3.00
2019-05-18T14:27:35.043Z,3.17
2019-05-18T14:30:06.112Z,3.10
2019-05-18T14:32:34.844Z,3.30
2019-05-18T14:35:04.647Z,2.90
2019-05-18T14:37:33.260Z,3.23
2019-05-18T14:40:01.998Z,3.00
2019-05-18T14:42:30.654Z,2.90
2019-05-18T14:44:59.359Z,2.80
2019-05-18T14:47:28.016Z,2.73
2019-05-18T14:49:56.745Z,3.00
2019-05-18T14:52:25.424Z,2.90
2019-05-18T14:54:54.155Z,3.00
2019-05-18T14:57:25.667Z,3.10
2019-05-18T14:59:53.275Z,3.10
2019-05-18T15:02:22.013Z,3.20
2019-05-18T15:04:53.428Z,3.40
2019-05-18T15:07:21.228Z,3.37
2019-05-18T15:09:49.770Z,3.40
2019-05-18T15:12:18.488Z,3.10
2019-05-18T15:14:47.176Z,3.50
2019-05-18T15:17:15.899Z,3.10
2019-05-18T15:19:44.631Z,3.00
2019-05-18T15:22:13.247Z,3.10
2019-05-18T15:24:41.911Z,3.00
2019-05-18T15:27:10.524Z,4.10
2019-05-18T15:29:39.185Z,4.37
2019-05-18T15:32:07.862Z,3.90
2019-05-18T15:34:36.523Z,3.93
2019-05-18T15:37:05.197Z,4.53
2019-05-18T15:39:33.937Z,4.30
2019-05-18T15:42:02.788Z,5.00
2019-05-18T15:44:31.403Z,5.87
2019-05-18T15:47:00.001Z,5.93
2019-05-18T15:49:28.809Z,6.13
2019-05-18T15:51:57.605Z,6.00
2019-05-18T15:54:26.356Z,6.70
2019-05-18T15:56:55.089Z,6.10
2019-05-18T15:59:23.768Z,5.90
2019-05-18T16:01:52.459Z,5.93
2019-05-18T16:04:21.044Z,5.47
2019-05-18T16:06:49.790Z,6.07
2019-05-18T16:09:18.395Z,5.60
2019-05-18T16:11:47.056Z,4.57
2019-05-18T16:14:15.727Z,5.60
2019-05-18T16:16:44.442Z,3.90
2019-05-18T16:19:13.124Z,3.67
2019-05-18T16:21:41.774Z,3.90
2019-05-18T16:24:10.438Z,4.03
2019-05-18T16:26:39.166Z,4.50
2019-05-18T16:29:07.914Z,4.50
2019-05-18T16:31:36.657Z,4.67
2019-05-18T16:34:06.771Z,4.33
2019-05-18T16:36:35.492Z,4.27
2019-05-18T16:39:07.218Z,4.23
2019-05-18T16:41:36.019Z,4.40
2019-05-18T16:44:04.961Z,4.77
2019-05-18T16:46:33.707Z,5.20
2019-05-18T16:49:02.373Z,5.30
2019-05-18T16:51:31.250Z,5.60
2019-05-18T16:53:59.810Z,4.67
2019-05-18T16:56:35.131Z,4.63
2019-05-18T16:58:58.786Z,4.50
2019-05-18T17:01:27.456Z,4.20
2019-05-18T17:03:56.342Z,4.70
2019-05-18T17:06:25.085Z,4.30
2019-05-18T17:08:53.949Z,4.63
2019-05-18T17:11:22.696Z,4.43
2019-05-18T17:13:51.492Z,4.50
2019-05-18T17:16:20.275Z,5.17
2019-05-18T17:18:49.083Z,4.30
2019-05-18T17:21:17.759Z,4.37
2019-05-18T17:23:46.580Z,4.10
2019-05-18T17:26:15.310Z,4.13
2019-05-18T17:28:44.012Z,4.00
2019-05-18T17:31:12.692Z,3.70
2019-05-18T17:33:41.388Z,4.20
2019-05-18T17:36:10.067Z,4.33
2019-05-18T17:38:38.798Z,4.20
2019-05-18T17:41:07.477Z,4.67
2019-05-18T17:43:37.300Z,4.50
2019-05-18T17:46:06.120Z,4.13
2019-05-18T17:48:34.807Z,4.17
2019-05-18T17:51:03.410Z,4.57
2019-05-18T17:53:32.079Z,4.40
2019-05-18T17:56:00.762Z,4.30
2019-05-18T17:58:29.428Z,5.00
2019-05-18T18:00:58.055Z,4.97
2019-05-18T18:03:26.668Z,5.43
2019-05-18T18:05:55.479Z,4.90
2019-05-18T18:08:24.223Z,5.17
2019-05-18T18:10:52.969Z,5.60
2019-05-18T18:13:21.820Z,5.70
2019-05-18T18:15:50.568Z,6.30
2019-05-18T18:18:19.180Z,6.10
2019-05-18T18:20:48.898Z,6.53
2019-05-18T18:23:17.579Z,6.43
2019-05-18T18:25:46.451Z,6.67
2019-05-18T18:28:15.159Z,6.77
2019-05-18T18:30:43.938Z,6.30
2019-05-18T18:33:12.615Z,7.17
2019-05-18T18:35:41.237Z,7.03
2019-05-18T18:38:09.919Z,7.50
2019-05-18T18:40:38.728Z,7.13
2019-05-18T18:43:07.488Z,7.07
2019-05-18T18:45:36.203Z,7.03
2019-05-18T18:48:04.950Z,6.70
2019-05-18T18:50:33.615Z,7.20
2019-05-18T18:53:02.347Z,7.70
2019-05-18T18:55:31.028Z,7.37
2019-05-18T18:57:59.902Z,7.50
2019-05-18T19:00:28.574Z,7.80
2019-05-18T19:02:57.325Z,7.73
2019-05-18T19:05:25.987Z,7.53
2019-05-18T19:07:54.673Z,7.70
2019-05-18T19:10:23.819Z,7.90
2019-05-18T19:12:54.577Z,8.57
2019-05-18T19:15:25.867Z,8.30
2019-05-18T19:18:03.985Z,9.03
2019-05-18T19:20:39.416Z,8.77
2019-05-18T19:23:08.901Z,9.23
2019-05-18T19:25:41.473Z,9.00
2019-05-18T19:28:14.512Z,9.00
2019-05-18T19:30:50.925Z,8.87
2019-05-18T19:33:21.500Z,9.40
2019-05-18T19:35:50.610Z,9.03
2019-05-18T19:38:19.337Z,9.33
2019-05-18T19:40:48.299Z,9.30
2019-05-18T19:43:17.064Z,9.70
2019-05-18T19:45:45.877Z,10.83
2019-05-18T19:48:14.544Z,10.13
2019-05-18T19:50:43.167Z,10.13
2019-05-18T19:53:11.943Z,10.33
2019-05-18T19:55:40.544Z,10.40
2019-05-18T19:58:11.559Z,10.73
2019-05-18T20:00:40.157Z,10.90
2019-05-18T20:03:09.059Z,11.17
2019-05-18T20:05:37.788Z,10.80
2019-05-18T20:08:06.649Z,11.93
2019-05-18T20:10:35.336Z,11.50
2019-05-18T20:13:04.124Z,11.67
2019-05-18T20:15:32.899Z,11.27
2019-05-18T20:18:01.790Z,11.93
2019-05-18T20:20:30.490Z,11.67
2019-05-18T20:22:59.202Z,10.80
2019-05-18T20:25:28.055Z,11.80
2019-05-18T20:27:56.822Z,11.97
2019-05-18T20:30:25.596Z,11.67
2019-05-18T20:32:54.352Z,12.87
2019-05-18T20:35:25.727Z,12.73
2019-05-18T20:37:53.678Z,12.43
2019-05-18T20:40:22.568Z,12.20
2019-05-18T20:42:51.270Z,12.47
2019-05-18T20:45:20.103Z,12.77
2019-05-18T20:47:48.871Z,12.33
2019-05-18T20:50:18.075Z,11.87
2019-05-18T20:52:46.975Z,12.37
2019-05-18T20:55:15.979Z,12.90
2019-05-18T20:57:44.834Z,12.13
2019-05-18T21:00:13.911Z,11.30
2019-05-18T21:02:42.690Z,11.70
2019-05-18T21:05:11.843Z,11.87
2019-05-18T21:07:40.506Z,11.53
2019-05-18T21:10:09.683Z,11.47
2019-05-18T21:12:38.556Z,12.07
2019-05-18T21:15:08.596Z,12.77
2019-05-18T21:17:37.734Z,12.23
2019-05-18T21:20:06.906Z,12.87
2019-05-18T21:22:35.715Z,12.37
2019-05-18T21:25:05.489Z,13.80
2019-05-18T21:27:34.173Z,13.67
2019-05-18T21:30:03.203Z,12.60
2019-05-18T21:32:32.092Z,12.90
2019-05-18T21:35:01.076Z,13.23
2019-05-18T21:37:29.761Z,12.63
2019-05-18T21:39:58.464Z,12.50
2019-05-18T21:42:27.172Z,12.93
2019-05-18T21:44:55.955Z,11.83
2019-05-18T21:47:24.842Z,13.33
2019-05-18T21:49:53.540Z,13.53
2019-05-18T21:52:22.302Z,13.20
2019-05-18T21:54:51.189Z,12.17
2019-05-18T21:57:20.075Z,13.03
2019-05-18T21:59:48.931Z,13.27
2019-05-18T22:02:17.792Z,12.27
2019-05-18T22:04:46.648Z,12.13
2019-05-18T22:07:15.595Z,12.43
2019-05-18T22:09:44.444Z,13.20
2019-05-18T22:12:13.323Z,14.30
2019-05-18T22:14:42.188Z,13.70
2019-05-18T22:17:10.967Z,13.60
2019-05-18T22:19:39.942Z,13.37
2019-05-18T22:22:08.751Z,13.27
2019-05-18T22:24:37.624Z,12.67
2019-05-18T22:27:06.366Z,12.90
2019-05-18T22:29:35.160Z,13.23
2019-05-18T22:32:04.053Z,12.37
2019-05-18T22:34:32.703Z,13.87
2019-05-18T22:37:01.502Z,13.37
2019-05-18T22:39:30.253Z,14.43
2019-05-18T22:41:59.182Z,13.93
2019-05-18T22:44:28.079Z,15.50
2019-05-18T22:46:56.880Z,13.20
2019-05-18T22:49:25.674Z,13.23
2019-05-18T22:51:54.445Z,13.47
2019-05-18T22:54:23.231Z,14.67
2019-05-18T22:56:52.183Z,13.60
2019-05-18T22:59:20.866Z,13.57
2019-05-18T23:01:49.725Z,12.77
2019-05-18T23:04:18.621Z,11.80
2019-05-18T23:06:47.374Z,12.60
2019-05-18T23:09:16.314Z,14.10
2019-05-18T23:11:45.023Z,11.97
2019-05-18T23:14:13.843Z,11.70
2019-05-18T23:16:42.674Z,11.60
2019-05-18T23:19:11.622Z,9.80
2019-05-18T23:21:40.490Z,11.87
2019-05-18T23:24:09.248Z,10.10
2019-05-18T23:26:38.019Z,10.70
2019-05-18T23:29:06.881Z,12.40
2019-05-18T23:31:35.655Z,12.37
2019-05-18T23:34:04.558Z,13.47
2019-05-18T23:36:33.263Z,12.43
2019-05-18T23:39:01.954Z,12.60
2019-05-18T23:41:30.789Z,13.93
2019-05-18T23:43:59.646Z,13.17
2019-05-18T23:46:28.470Z,12.00
2019-05-18T23:49:10.008Z,14.83
2019-05-18T23:51:27.704Z,14.53
